createdAt,value
2018-06-07T00:02:17.100Z,70.70
2018-06-07T00:04:45.816Z,70.70
2018-06-07T00:07:14.438Z,70.70
2018-06-07T00:09:43.120Z,70.80
2018-06-07T00:12:11.848Z,70.90
2018-06-07T00:14:40.540Z,70.80
2018-06-07T00:17:09.885Z,70.80
2018-06-07T00:19:38.607Z,70.70
2018-06-07T00:22:07.296Z,70.90
2018-06-07T00:24:35.980Z,70.90
2018-06-07T00:27:04.615Z,71.00
2018-06-07T00:29:33.260Z,71.00
2018-06-07T00:34:30.304Z,71.10
2018-06-07T00:36:58.953Z,71.00
2018-06-07T00:39:27.689Z,71.10
2018-06-07T00:41:56.397Z,70.90
2018-06-07T00:44:25.072Z,71.10
2018-06-07T00:49:22.067Z,71.20
2018-06-07T00:51:50.824Z,71.20
2018-06-07T00:54:19.536Z,71.40
2018-06-07T00:56:59.460Z,71.40
2018-06-07T00:59:28.149Z,71.30
2018-06-07T01:01:58.004Z,71.50
2018-06-07T01:04:26.754Z,71.50
2018-06-07T01:06:55.376Z,71.60
2018-06-07T01:09:24.020Z,71.80
2018-06-07T01:11:52.689Z,71.90
2018-06-07T01:14:26.089Z,71.90
2018-06-07T01:16:54.817Z,72.00
2018-06-07T01:21:51.783Z,71.90
2018-06-07T01:24:20.487Z,72.10
2018-06-07T01:26:49.169Z,72.10
2018-06-07T01:29:28.820Z,72.10
2018-06-07T01:34:10.522Z,72.20
2018-06-07T01:36:39.863Z,72.20
2018-06-07T01:39:10.366Z,72.30
2018-06-07T01:41:39.038Z,72.50
2018-06-07T01:44:07.738Z,72.60
2018-06-07T01:46:36.436Z,72.70
2018-06-07T01:49:05.111Z,72.80
2018-06-07T01:51:33.804Z,72.90
2018-06-07T01:54:02.838Z,72.90
2018-06-07T01:56:31.596Z,72.90
2018-06-07T01:59:00.337Z,72.90
2018-06-07T02:01:29.109Z,72.90
2018-06-07T02:03:59.705Z,72.90
2018-06-07T02:06:28.327Z,72.90
2018-06-07T02:11:25.289Z,72.90
2018-06-07T02:13:53.960Z,72.90
2018-06-07T02:16:22.613Z,72.80
2018-06-07T02:18:51.277Z,72.80
2018-06-07T02:21:19.977Z,72.70
2018-06-07T02:23:48.663Z,72.70
2018-06-07T02:26:22.049Z,72.70
2018-06-07T02:28:50.712Z,73.40
2018-06-07T02:31:19.376Z,72.60
2018-06-07T02:33:48.065Z,72.60
2018-06-07T02:36:16.753Z,72.50
2018-06-07T02:38:45.516Z,72.60
2018-06-07T02:41:14.152Z,72.70
2018-06-07T02:43:42.822Z,72.60
2018-06-07T02:46:11.507Z,72.70
2018-06-07T02:48:40.865Z,72.60
2018-06-07T02:51:09.561Z,72.60
2018-06-07T02:53:38.216Z,72.60
2018-06-07T02:56:06.873Z,72.60
2018-06-07T02:58:35.501Z,72.60
2018-06-07T03:01:04.242Z,72.50
2018-06-07T03:03:32.897Z,72.50
2018-06-07T03:06:01.555Z,72.50
2018-06-07T03:08:30.228Z,72.50
2018-06-07T03:11:03.352Z,72.50
2018-06-07T03:13:31.992Z,72.50
2018-06-07T03:16:00.687Z,72.40
2018-06-07T03:18:29.341Z,72.50
2018-06-07T03:20:58.073Z,72.50
2018-06-07T03:23:26.799Z,72.50
2018-06-07T03:25:55.478Z,72.50
2018-06-07T03:28:24.153Z,72.60
2018-06-07T03:30:52.802Z,72.60
2018-06-07T03:33:21.524Z,72.60
2018-06-07T03:35:50.186Z,72.70
2018-06-07T03:38:18.864Z,72.70
2018-06-07T03:40:47.545Z,72.80
2018-06-07T03:43:16.177Z,72.90
2018-06-07T03:45:44.842Z,72.70
2018-06-07T03:48:13.521Z,72.80
2018-06-07T03:50:42.200Z,72.90
2018-06-07T03:53:10.825Z,72.80
2018-06-07T03:55:39.568Z,72.70
2018-06-07T03:58:08.229Z,72.80
2018-06-07T04:00:36.874Z,72.90
2018-06-07T04:03:05.545Z,72.70
2018-06-07T04:05:34.197Z,72.90
2018-06-07T04:08:03.452Z,73.10
2018-06-07T04:10:32.111Z,72.90
2018-06-07T04:13:00.774Z,72.70
2018-06-07T04:15:29.484Z,72.70
2018-06-07T04:17:58.149Z,72.70
2018-06-07T04:20:27.576Z,72.80
2018-06-07T04:22:56.936Z,72.90
2018-06-07T04:25:25.625Z,72.90
2018-06-07T04:27:55.897Z,73.00
2018-06-07T04:30:24.585Z,72.80
2018-06-07T04:32:53.879Z,72.90
2018-06-07T04:35:23.354Z,72.80
2018-06-07T04:37:52.001Z,72.90
2018-06-07T04:40:20.685Z,73.00
2018-06-07T04:42:49.357Z,72.90
2018-06-07T04:45:17.997Z,72.80
2018-06-07T04:47:46.659Z,72.80
2018-06-07T04:50:15.354Z,72.60
2018-06-07T04:52:44.386Z,72.40
2018-06-07T04:55:13.781Z,72.40
2018-06-07T04:57:42.453Z,72.40
2018-06-07T05:00:11.122Z,72.40
2018-06-07T05:02:39.769Z,72.60
2018-06-07T05:05:08.485Z,72.60
2018-06-07T05:07:37.181Z,72.60
2018-06-07T05:10:05.938Z,72.60
2018-06-07T05:12:34.569Z,72.40
2018-06-07T05:15:03.259Z,72.20
2018-06-07T05:17:31.955Z,72.20
2018-06-07T05:20:00.626Z,72.20
2018-06-07T05:22:29.248Z,72.00
2018-06-07T05:24:58.053Z,71.80
2018-06-07T05:27:26.702Z,71.50
2018-06-07T05:29:55.441Z,71.50
2018-06-07T05:32:24.138Z,71.40
2018-06-07T05:34:52.825Z,71.10
2018-06-07T05:37:21.510Z,71.10
2018-06-07T05:39:50.185Z,71.10
2018-06-07T05:42:18.823Z,70.90
2018-06-07T05:44:47.482Z,70.80
2018-06-07T05:47:16.230Z,70.40
2018-06-07T05:49:44.947Z,70.20
2018-06-07T05:52:13.640Z,70.10
2018-06-07T05:57:10.569Z,69.60
2018-06-07T05:59:39.355Z,69.50
2018-06-07T06:02:08.781Z,69.50
2018-06-07T06:04:37.481Z,68.90
2018-06-07T06:07:06.153Z,68.80
2018-06-07T06:09:34.906Z,69.00
2018-06-07T06:12:03.559Z,68.30
2018-06-07T06:17:00.548Z,66.90
2018-06-07T06:19:29.183Z,66.30
2018-06-07T06:21:58.328Z,66.40
2018-06-07T06:26:55.348Z,66.10
2018-06-07T06:29:24.050Z,66.00
2018-06-07T06:31:52.823Z,65.70
2018-06-07T06:34:21.574Z,65.60
2018-06-07T06:36:50.207Z,65.60
2018-06-07T06:39:18.973Z,65.10
2018-06-07T06:41:47.656Z,65.20
2018-06-07T06:44:16.300Z,65.40
2018-06-07T06:46:44.991Z,65.30
2018-06-07T06:49:13.947Z,65.50
2018-06-07T06:51:42.578Z,65.40
2018-06-07T06:54:11.328Z,65.70
2018-06-07T06:56:40.019Z,65.70
2018-06-07T07:01:37.044Z,65.40
2018-06-07T07:04:05.744Z,65.20
2018-06-07T07:06:34.438Z,65.20
2018-06-07T07:09:03.373Z,65.00
2018-06-07T07:11:32.098Z,64.80
2018-06-07T07:14:00.776Z,64.70
2018-06-07T07:16:29.555Z,64.40
2018-06-07T07:18:58.819Z,64.10
2018-06-07T07:23:56.226Z,64.40
2018-06-07T07:26:24.940Z,64.20
2018-06-07T07:28:53.644Z,64.20
2018-06-07T07:31:22.303Z,64.80
2018-06-07T07:33:50.970Z,63.80
2018-06-07T07:36:20.133Z,63.60
2018-06-07T07:41:18.074Z,63.20
2018-06-07T07:43:46.738Z,62.90
2018-06-07T07:46:15.389Z,63.10
2018-06-07T07:48:44.319Z,63.00
2018-06-07T07:51:13.210Z,62.90
2018-06-07T07:53:43.295Z,62.70
2018-06-07T07:58:45.752Z,62.60
2018-06-07T08:01:14.489Z,62.40
2018-06-07T08:03:43.153Z,62.40
2018-06-07T08:06:11.870Z,62.20
2018-06-07T08:13:37.221Z,61.90
2018-06-07T08:16:06.382Z,62.20
2018-06-07T08:18:35.102Z,62.30
2018-06-07T08:21:03.786Z,62.40
2018-06-07T08:23:32.536Z,62.50
2018-06-07T08:26:01.231Z,62.60
2018-06-07T08:28:29.885Z,62.80
2018-06-07T08:30:59.192Z,62.90
2018-06-07T08:33:27.941Z,63.00
2018-06-07T08:35:56.611Z,62.90
2018-06-07T08:38:25.618Z,63.20
2018-06-07T08:40:54.330Z,63.30
2018-06-07T08:43:23.030Z,63.10
2018-06-07T08:45:51.735Z,63.20
2018-06-07T08:48:21.252Z,63.00
2018-06-07T08:50:50.015Z,62.90
2018-06-07T08:53:18.669Z,63.10
2018-06-07T08:55:48.031Z,63.10
2018-06-07T08:58:16.829Z,63.00
2018-06-07T09:00:45.478Z,63.20
2018-06-07T09:03:14.259Z,63.30
2018-06-07T09:05:43.981Z,63.90
2018-06-07T09:08:12.639Z,63.30
2018-06-07T09:10:41.335Z,63.40
2018-06-07T09:13:10.011Z,63.40
2018-06-07T09:15:38.677Z,63.50
2018-06-07T09:20:35.703Z,63.80
2018-06-07T09:23:04.409Z,63.80
2018-06-07T09:25:33.229Z,64.10
2018-06-07T09:28:02.986Z,64.10
2018-06-07T09:30:32.377Z,64.20
2018-06-07T09:33:01.434Z,64.30
2018-06-07T09:37:58.753Z,64.40
2018-06-07T09:40:31.521Z,64.20
2018-06-07T09:43:01.089Z,64.30
2018-06-07T09:45:30.042Z,64.20
2018-06-07T09:47:59.015Z,64.00
2018-06-07T09:50:29.201Z,64.10
2018-06-07T09:55:26.337Z,63.80
2018-06-07T09:57:54.981Z,63.70
2018-06-07T10:00:26.609Z,63.50
2018-06-07T10:02:55.594Z,63.50
2018-06-07T10:07:53.272Z,63.80
2018-06-07T10:10:22.127Z,62.80
2018-06-07T10:12:51.471Z,62.60
2018-06-07T10:15:20.120Z,62.50
2018-06-07T10:17:48.794Z,62.40
2018-06-07T10:20:17.475Z,62.60
2018-06-07T10:22:46.158Z,62.70
2018-06-07T10:25:14.893Z,62.90
2018-06-07T10:27:43.522Z,62.80
2018-06-07T10:30:12.257Z,63.00
2018-06-07T10:32:40.892Z,63.00
2018-06-07T10:35:09.852Z,63.00
2018-06-07T10:37:38.678Z,63.10
2018-06-07T10:40:07.476Z,62.90
2018-06-07T10:42:36.131Z,62.80
2018-06-07T10:45:09.616Z,62.90
2018-06-07T10:47:38.327Z,63.00
2018-06-07T10:52:35.321Z,62.90
2018-06-07T10:55:04.107Z,62.70
2018-06-07T10:57:32.770Z,62.50
2018-06-07T11:00:01.532Z,62.50
2018-06-07T11:02:30.320Z,62.40
2018-06-07T11:04:59.213Z,62.30
2018-06-07T11:07:29.197Z,62.20
2018-06-07T11:09:57.902Z,62.00
2018-06-07T11:12:26.629Z,61.90
2018-06-07T11:14:55.307Z,61.90
2018-06-07T11:17:24.138Z,61.80
2018-06-07T11:19:52.781Z,61.90
2018-06-07T11:22:21.552Z,62.00
2018-06-07T11:24:50.257Z,61.80
2018-06-07T11:27:18.933Z,61.70
2018-06-07T11:29:47.690Z,61.80
2018-06-07T11:34:44.733Z,61.90
2018-06-07T11:37:13.521Z,62.00
2018-06-07T11:39:42.273Z,62.20
2018-06-07T11:42:10.974Z,62.30
2018-06-07T11:44:39.685Z,62.30
2018-06-07T11:47:08.340Z,62.20
2018-06-07T11:49:36.997Z,62.00
2018-06-07T11:52:05.797Z,61.80
2018-06-07T11:54:34.489Z,61.20
2018-06-07T11:57:03.237Z,60.90
2018-06-07T11:59:31.944Z,61.10
2018-06-07T12:04:28.930Z,61.10
2018-06-07T12:06:57.697Z,61.10
2018-06-07T12:09:27.564Z,61.00
2018-06-07T12:11:56.250Z,61.00
2018-06-07T12:14:24.988Z,60.70
2018-06-07T12:16:53.678Z,60.80
2018-06-07T12:21:50.645Z,61.00
2018-06-07T12:26:47.690Z,61.30
2018-06-07T12:29:16.344Z,61.10
2018-06-07T12:31:45.041Z,60.80
2018-06-07T12:34:13.783Z,60.90
2018-06-07T12:39:10.900Z,60.80
2018-06-07T12:41:40.982Z,60.80
2018-06-07T12:44:09.710Z,60.70
2018-06-07T12:46:38.405Z,60.50
2018-06-07T12:49:07.097Z,60.50
2018-06-07T12:51:35.860Z,60.40
2018-06-07T12:54:04.649Z,60.10
2018-06-07T12:56:33.388Z,60.00
2018-06-07T12:59:02.532Z,60.00
2018-06-07T13:01:31.788Z,59.60
2018-06-07T13:04:00.568Z,59.50
2018-06-07T13:08:57.936Z,58.70
2018-06-07T13:13:55.814Z,58.40
2018-06-07T13:18:52.929Z,58.80
2018-06-07T13:21:21.570Z,58.30
2018-06-07T13:26:18.635Z,57.90
2018-06-07T13:28:47.388Z,57.50
2018-06-07T13:31:16.143Z,57.00
2018-06-07T13:33:44.827Z,57.00
2018-06-07T13:38:41.917Z,57.10
2018-06-07T13:41:10.657Z,57.30
2018-06-07T13:43:39.337Z,57.70
2018-06-07T13:46:08.089Z,58.10
2018-06-07T13:48:36.771Z,58.40
2018-06-07T13:51:06.863Z,58.40
2018-06-07T13:53:35.624Z,58.50
2018-06-07T13:58:32.796Z,58.80
2018-06-07T14:01:01.485Z,59.00
2018-06-07T14:03:30.249Z,59.10
2018-06-07T14:05:59.042Z,59.20
2018-06-07T14:08:27.810Z,59.50
2018-06-07T14:10:57.041Z,59.30
2018-06-07T14:13:25.778Z,59.50
2018-06-07T14:15:54.439Z,60.20
2018-06-07T14:18:23.210Z,59.70
2018-06-07T14:23:21.040Z,60.10
2018-06-07T14:25:49.688Z,60.20
2018-06-07T14:28:18.348Z,60.40
2018-06-07T14:30:47.049Z,60.60
2018-06-07T14:35:44.056Z,60.80
2018-06-07T14:38:12.725Z,61.00
2018-06-07T14:40:41.430Z,61.00
2018-06-07T14:43:10.102Z,61.10
2018-06-07T14:45:38.847Z,61.40
2018-06-07T14:48:07.558Z,61.60
2018-06-07T14:50:36.277Z,61.50
2018-06-07T14:53:05.050Z,61.50
2018-06-07T14:55:34.579Z,61.50
2018-06-07T14:58:03.304Z,61.50
2018-06-07T15:00:31.969Z,61.30
2018-06-07T15:03:00.692Z,60.80
2018-06-07T15:05:29.431Z,60.10
2018-06-07T15:07:58.160Z,59.80
2018-06-07T15:10:26.901Z,59.70
2018-06-07T15:12:56.379Z,59.30
2018-06-07T15:15:25.001Z,58.80
2018-06-07T15:17:53.710Z,58.50
2018-06-07T15:20:22.369Z,58.20
2018-06-07T15:22:51.085Z,58.20
2018-06-07T15:25:19.801Z,58.30
2018-06-07T15:27:49.456Z,57.90
2018-06-07T15:30:18.108Z,57.90
2018-06-07T15:32:46.810Z,57.90
2018-06-07T15:35:15.485Z,57.50
2018-06-07T15:37:44.667Z,57.70
2018-06-07T15:42:41.646Z,57.70
2018-06-07T15:45:10.326Z,57.60
2018-06-07T15:47:39.525Z,57.70
2018-06-07T15:50:08.281Z,57.80
2018-06-07T15:52:37.012Z,57.90
2018-06-07T16:00:02.531Z,57.40
2018-06-07T16:02:31.830Z,57.20
2018-06-07T16:05:00.526Z,57.50
2018-06-07T16:07:29.207Z,57.50
2018-06-07T16:12:26.237Z,57.80
2018-06-07T16:14:55.636Z,58.00
2018-06-07T16:17:25.004Z,58.10
2018-06-07T16:22:21.967Z,58.20
2018-06-07T16:24:50.705Z,58.00
2018-06-07T16:27:19.473Z,57.90
2018-06-07T16:29:48.120Z,58.00
2018-06-07T16:32:16.925Z,57.90
2018-06-07T16:34:46.296Z,57.80
2018-06-07T16:39:43.306Z,57.70
2018-06-07T16:42:12.072Z,57.80
2018-06-07T16:44:40.696Z,57.90
2018-06-07T16:47:09.401Z,58.10
2018-06-07T16:49:38.083Z,58.30
2018-06-07T16:52:06.810Z,58.40
2018-06-07T16:54:35.613Z,58.40
2018-06-07T16:57:05.770Z,58.60
2018-06-07T16:59:35.180Z,58.50
2018-06-07T17:02:04.695Z,58.60
2018-06-07T17:04:33.407Z,58.80
2018-06-07T17:07:02.869Z,58.80
2018-06-07T17:09:31.606Z,58.80
2018-06-07T17:12:00.339Z,58.80
2018-06-07T17:14:29.514Z,58.70
2018-06-07T17:16:58.270Z,58.70
2018-06-07T17:21:55.536Z,58.80
2018-06-07T17:24:24.466Z,59.30
2018-06-07T17:26:53.749Z,59.10
2018-06-07T17:29:22.466Z,59.10
2018-06-07T17:31:51.223Z,59.30
2018-06-07T17:34:20.013Z,59.40
2018-06-07T17:36:48.825Z,59.40
2018-06-07T17:39:17.669Z,59.50
2018-06-07T17:41:46.406Z,59.60
2018-06-07T17:44:15.177Z,59.60
2018-06-07T17:46:43.882Z,59.70
2018-06-07T17:49:12.601Z,59.80
2018-06-07T17:51:41.313Z,60.00
2018-06-07T17:54:10.285Z,60.10
2018-06-07T17:56:39.742Z,60.30
2018-06-07T17:59:09.346Z,60.50
2018-06-07T18:01:38.075Z,60.60
2018-06-07T18:04:06.881Z,60.70
2018-06-07T18:06:35.517Z,60.70
2018-06-07T18:11:33.567Z,60.90
2018-06-07T18:14:02.304Z,60.90
2018-06-07T18:16:30.977Z,61.40
2018-06-07T18:18:59.693Z,61.20
2018-06-07T18:21:28.430Z,61.40
2018-06-07T18:26:25.546Z,61.70
2018-06-07T18:28:54.288Z,61.80
2018-06-07T18:31:23.704Z,61.90
2018-06-07T18:33:52.428Z,62.10
2018-06-07T18:36:21.182Z,62.30
2018-06-07T18:41:18.392Z,62.60
2018-06-07T18:43:47.038Z,62.80
2018-06-07T18:48:44.313Z,63.30
2018-06-07T18:51:13.105Z,63.40
2018-06-07T18:53:41.805Z,63.40
2018-06-07T18:56:10.554Z,63.50
2018-06-07T18:58:39.267Z,63.70
2018-06-07T19:01:07.940Z,63.60
2018-06-07T19:03:36.691Z,63.80
2018-06-07T19:06:05.523Z,63.90
2018-06-07T19:08:39.563Z,64.10
2018-06-07T19:11:08.490Z,64.20
2018-06-07T19:13:42.675Z,64.40
2018-06-07T19:16:11.418Z,64.40
2018-06-07T19:18:40.137Z,64.50
2018-06-07T19:21:08.897Z,64.60
2018-06-07T19:23:37.645Z,64.70
2018-06-07T19:26:11.637Z,64.80
2018-06-07T19:28:40.321Z,64.90
2018-06-07T19:31:09.096Z,65.00
2018-06-07T19:35:44.758Z,65.10
2018-06-07T19:38:14.002Z,65.20
2018-06-07T19:40:47.805Z,65.40
2018-06-07T19:43:16.533Z,65.70
2018-06-07T19:45:45.977Z,65.70
2018-06-07T19:48:14.747Z,65.80
2018-06-07T19:50:43.517Z,65.90
2018-06-07T19:53:12.304Z,65.90
2018-06-07T19:55:41.073Z,66.00
2018-06-07T19:58:09.821Z,66.00
2018-06-07T20:00:38.832Z,66.00
2018-06-07T20:03:07.613Z,66.10
2018-06-07T20:05:36.363Z,66.20
2018-06-07T20:08:05.358Z,66.20
2018-06-07T20:10:34.740Z,66.30
2018-06-07T20:13:04.540Z,66.30
2018-06-07T20:15:33.312Z,66.30
2018-06-07T20:18:02.089Z,66.30
2018-06-07T20:20:30.869Z,66.30
2018-06-07T20:22:59.755Z,66.40
2018-06-07T20:25:28.513Z,66.40
2018-06-07T20:27:57.241Z,66.40
2018-06-07T20:30:26.549Z,66.50
2018-06-07T20:32:55.334Z,66.50
2018-06-07T20:35:24.059Z,66.50
2018-06-07T20:37:53.157Z,66.50
2018-06-07T20:40:21.847Z,66.50
2018-06-07T20:42:50.489Z,66.50
2018-06-07T20:45:19.226Z,66.70
2018-06-07T20:47:47.897Z,66.60
2018-06-07T20:50:16.656Z,66.50
2018-06-07T20:52:45.341Z,66.40
2018-06-07T20:55:13.993Z,66.40
2018-06-07T20:57:42.648Z,66.40
2018-06-07T21:02:39.803Z,66.50
2018-06-07T21:05:08.634Z,66.40
2018-06-07T21:07:37.323Z,66.50
2018-06-07T21:10:06.345Z,66.60
2018-06-07T21:12:35.001Z,66.50
2018-06-07T21:15:03.726Z,66.60
2018-06-07T21:17:32.421Z,66.80
2018-06-07T21:20:01.178Z,66.80
2018-06-07T21:22:29.848Z,66.80
2018-06-07T21:24:58.641Z,66.70
2018-06-07T21:27:27.486Z,66.80
2018-06-07T21:29:56.865Z,66.90
2018-06-07T21:32:25.612Z,67.00
2018-06-07T21:34:54.385Z,67.00
2018-06-07T21:37:23.061Z,67.00
2018-06-07T21:39:51.793Z,67.00
2018-06-07T21:42:20.472Z,67.10
2018-06-07T21:44:49.180Z,67.40
2018-06-07T21:47:17.873Z,67.40
2018-06-07T21:49:46.556Z,67.50
2018-06-07T21:52:15.195Z,67.50
2018-06-07T21:54:43.932Z,67.60
2018-06-07T21:57:12.650Z,67.70
2018-06-07T21:59:41.317Z,67.70
2018-06-07T22:02:14.977Z,67.70
2018-06-07T22:04:43.665Z,67.70
2018-06-07T22:07:12.392Z,67.60
2018-06-07T22:09:41.080Z,67.60
2018-06-07T22:12:09.832Z,67.70
2018-06-07T22:14:38.593Z,67.70
2018-06-07T22:19:35.653Z,67.90
2018-06-07T22:22:04.439Z,67.90
2018-06-07T22:27:01.486Z,68.90
2018-06-07T22:29:30.150Z,68.20
2018-06-07T22:31:58.809Z,68.20
2018-06-07T22:34:27.603Z,68.10
2018-06-07T22:36:56.213Z,68.10
2018-06-07T22:39:24.906Z,68.20
2018-06-07T22:41:53.527Z,68.30
2018-06-07T22:44:22.203Z,68.40
2018-06-07T22:46:50.949Z,68.50
2018-06-07T22:49:19.647Z,68.70
2018-06-07T22:51:48.295Z,68.70
2018-06-07T22:54:17.063Z,68.90
2018-06-07T22:59:14.710Z,69.00
2018-06-07T23:01:43.458Z,69.00
2018-06-07T23:04:12.193Z,69.20
2018-06-07T23:06:40.916Z,69.30
2018-06-07T23:09:09.608Z,69.40
2018-06-07T23:11:38.678Z,69.60
2018-06-07T23:14:07.349Z,69.70
2018-06-07T23:16:36.036Z,69.70
2018-06-07T23:19:04.773Z,69.80
2018-06-07T23:21:33.425Z,70.20
2018-06-07T23:24:02.124Z,70.00
2018-06-07T23:26:30.806Z,70.20
2018-06-07T23:28:59.443Z,70.20
2018-06-07T23:31:28.209Z,70.10
2018-06-07T23:33:56.932Z,69.30
2018-06-07T23:36:25.676Z,68.80
2018-06-07T23:38:54.370Z,68.50
2018-06-07T23:41:23.013Z,68.00
2018-06-07T23:43:51.710Z,67.30
2018-06-07T23:46:20.456Z,67.20
2018-06-07T23:48:49.550Z,66.90
2018-06-07T23:51:18.216Z,66.60
2018-06-07T23:53:46.974Z,66.60
2018-06-07T23:56:15.627Z,66.60
2018-06-07T23:58:48.752Z,66.70
